createdAt,value
2019-04-07T00:01:53.851Z,69.30
2019-04-07T00:04:22.539Z,69.80
2019-04-07T00:06:51.011Z,69.40
2019-04-07T00:09:20.453Z,69.50
2019-04-07T00:11:48.898Z,69.20
2019-04-07T00:14:17.296Z,69.90
2019-04-07T00:16:45.690Z,70.50
2019-04-07T00:19:14.101Z,70.40
2019-04-07T00:21:42.485Z,70.60
2019-04-07T00:24:10.812Z,70.70
2019-04-07T00:26:39.430Z,70.40
2019-04-07T00:29:07.760Z,70.60
2019-04-07T00:31:37.370Z,70.40
2019-04-07T00:34:05.748Z,70.70
2019-04-07T00:36:34.230Z,70.50
2019-04-07T00:39:02.717Z,71.60
2019-04-07T00:41:31.064Z,71.80
2019-04-07T00:43:59.981Z,73.10
2019-04-07T00:46:28.884Z,73.70
2019-04-07T00:48:57.787Z,74.80
2019-04-07T00:51:26.749Z,72.20
2019-04-07T00:53:56.127Z,72.20
2019-04-07T00:56:24.705Z,71.20
2019-04-07T00:58:53.345Z,71.20
2019-04-07T01:01:21.765Z,70.90
2019-04-07T01:03:50.335Z,70.60
2019-04-07T01:06:18.813Z,71.60
2019-04-07T01:08:47.825Z,71.40
2019-04-07T01:11:16.732Z,71.80
2019-04-07T01:13:45.263Z,71.70
2019-04-07T01:16:13.976Z,72.10
2019-04-07T01:18:43.702Z,72.00
2019-04-07T01:21:12.738Z,71.80
2019-04-07T01:23:41.504Z,72.70
2019-04-07T01:26:09.939Z,71.70
2019-04-07T01:28:38.810Z,71.00
2019-04-07T01:31:07.249Z,70.90
2019-04-07T01:33:35.601Z,70.60
2019-04-07T01:36:04.033Z,70.40
2019-04-07T01:38:32.359Z,70.30
2019-04-07T01:41:17.569Z,70.70
2019-04-07T01:43:48.169Z,69.70
2019-04-07T01:46:36.127Z,69.90
2019-04-07T01:49:18.405Z,70.10
2019-04-07T01:51:54.173Z,70.20
2019-04-07T01:54:33.113Z,70.20
2019-04-07T01:57:20.128Z,70.50
2019-04-07T01:59:59.214Z,70.10
2019-04-07T02:02:29.258Z,70.00
2019-04-07T02:05:15.568Z,70.00
2019-04-07T02:07:54.634Z,69.70
2019-04-07T02:10:25.153Z,70.50
2019-04-07T02:13:12.159Z,71.10
2019-04-07T02:15:51.406Z,70.80
2019-04-07T02:18:27.837Z,70.70
2019-04-07T02:21:00.841Z,70.50
2019-04-07T02:23:45.885Z,71.10
2019-04-07T02:26:27.849Z,71.10
2019-04-07T02:29:13.824Z,71.20
2019-04-07T02:32:00.301Z,71.00
2019-04-07T02:34:40.115Z,71.30
2019-04-07T02:37:26.628Z,71.30
2019-04-07T02:40:03.478Z,71.10
2019-04-07T02:42:40.932Z,71.30
2019-04-07T02:45:15.002Z,71.10
2019-04-07T02:48:03.586Z,71.30
2019-04-07T02:50:46.536Z,71.50
2019-04-07T02:53:22.370Z,72.30
2019-04-07T02:55:58.418Z,72.30
2019-04-07T02:58:29.334Z,72.80
2019-04-07T03:01:05.829Z,73.60
2019-04-07T03:03:36.855Z,73.60
2019-04-07T03:06:07.053Z,73.40
2019-04-07T03:08:40.065Z,73.30
2019-04-07T03:11:20.129Z,73.40
2019-04-07T03:13:54.267Z,74.00
2019-04-07T03:16:39.473Z,74.90
2019-04-07T03:19:13.190Z,74.80
2019-04-07T03:21:48.940Z,75.00
2019-04-07T03:24:22.399Z,75.10
2019-04-07T03:26:53.256Z,74.90
2019-04-07T03:29:29.705Z,75.10
2019-04-07T03:32:07.830Z,75.30
2019-04-07T03:34:41.188Z,75.40
2019-04-07T03:37:30.428Z,75.70
2019-04-07T03:39:58.875Z,75.50
2019-04-07T03:42:38.473Z,75.70
2019-04-07T03:45:11.962Z,76.00
2019-04-07T03:47:42.624Z,76.70
2019-04-07T03:50:16.277Z,77.10
2019-04-07T03:52:56.324Z,77.70
2019-04-07T03:55:26.562Z,78.00
2019-04-07T03:57:56.916Z,78.10
2019-04-07T04:01:06.661Z,78.50
2019-04-07T04:03:53.572Z,78.90
2019-04-07T04:06:32.666Z,80.10
2019-04-07T04:09:08.744Z,80.60
2019-04-07T04:11:51.630Z,81.30
2019-04-07T04:14:25.348Z,81.90
2019-04-07T04:16:54.362Z,82.40
2019-04-07T04:19:22.810Z,82.80
2019-04-07T04:21:51.473Z,82.60
2019-04-07T04:24:21.441Z,82.30
2019-04-07T04:26:50.110Z,82.50
2019-04-07T04:29:20.049Z,83.00
2019-04-07T04:31:49.113Z,82.90
2019-04-07T04:34:17.514Z,83.10
2019-04-07T04:36:46.559Z,83.30
2019-04-07T04:39:18.738Z,83.20
2019-04-07T04:41:44.931Z,83.20
2019-04-07T04:44:14.222Z,84.20
2019-04-07T04:46:42.764Z,85.70
2019-04-07T04:49:11.808Z,85.70
2019-04-07T04:51:42.444Z,85.70
2019-04-07T04:54:11.084Z,85.70
2019-04-07T04:56:39.520Z,85.90
2019-04-07T04:59:07.882Z,85.80
2019-04-07T05:01:36.282Z,86.00
2019-04-07T05:04:04.962Z,85.50
2019-04-07T05:06:33.320Z,86.70
2019-04-07T05:09:02.181Z,85.90
2019-04-07T05:11:30.556Z,85.90
2019-04-07T05:13:59.302Z,85.90
2019-04-07T05:16:27.673Z,85.30
2019-04-07T05:18:56.053Z,82.30
2019-04-07T05:21:25.015Z,81.00
2019-04-07T05:23:53.908Z,80.50
2019-04-07T05:26:22.354Z,80.50
2019-04-07T05:28:50.734Z,80.40
2019-04-07T05:31:19.901Z,80.50
2019-04-07T05:33:48.217Z,80.70
2019-04-07T05:36:16.823Z,80.90
2019-04-07T05:38:45.516Z,80.20
2019-04-07T05:41:14.156Z,80.40
2019-04-07T05:43:42.742Z,80.40
2019-04-07T05:46:11.127Z,79.90
2019-04-07T05:48:39.513Z,80.00
2019-04-07T05:51:08.749Z,79.70
2019-04-07T05:53:38.797Z,80.00
2019-04-07T05:56:07.630Z,79.70
2019-04-07T05:58:39.389Z,80.00
2019-04-07T06:01:06.357Z,79.80
2019-04-07T06:03:38.017Z,79.70
2019-04-07T06:06:04.974Z,79.60
2019-04-07T06:08:38.689Z,79.60
2019-04-07T06:11:04.137Z,79.40
2019-04-07T06:13:32.939Z,79.60
2019-04-07T06:16:01.980Z,78.90
2019-04-07T06:18:33.889Z,78.50
2019-04-07T06:21:00.461Z,78.30
2019-04-07T06:23:30.395Z,78.20
2019-04-07T06:26:00.008Z,78.30
2019-04-07T06:28:29.240Z,78.00
2019-04-07T06:31:00.196Z,77.80
2019-04-07T06:33:27.720Z,77.70
2019-04-07T06:35:56.222Z,77.50
2019-04-07T06:38:31.819Z,78.00
2019-04-07T06:40:57.788Z,77.60
2019-04-07T06:43:24.778Z,77.60
2019-04-07T06:46:00.500Z,77.40
2019-04-07T06:48:30.526Z,77.40
2019-04-07T06:51:03.882Z,77.10
2019-04-07T06:53:50.456Z,77.00
2019-04-07T06:56:20.740Z,76.90
2019-04-07T06:58:53.778Z,76.60
2019-04-07T07:01:32.943Z,77.30
2019-04-07T07:04:14.761Z,77.20
2019-04-07T07:06:47.198Z,76.90
2019-04-07T07:09:25.722Z,75.70
2019-04-07T07:11:57.468Z,75.90
2019-04-07T07:14:45.812Z,75.70
2019-04-07T07:17:33.233Z,76.20
2019-04-07T07:20:06.797Z,75.30
2019-04-07T07:22:47.579Z,75.80
2019-04-07T07:25:15.798Z,75.40
2019-04-07T07:27:44.484Z,75.40
2019-04-07T07:30:15.178Z,74.80
2019-04-07T07:32:42.909Z,74.10
2019-04-07T07:35:14.447Z,74.40
2019-04-07T07:37:41.403Z,73.30
2019-04-07T07:40:10.072Z,72.80
2019-04-07T07:42:38.426Z,72.40
2019-04-07T07:45:11.857Z,71.30
2019-04-07T07:47:38.504Z,70.60
2019-04-07T07:50:08.080Z,70.40
2019-04-07T07:52:37.665Z,70.50
2019-04-07T07:55:06.940Z,70.00
2019-04-07T07:57:37.026Z,67.70
2019-04-07T08:00:11.442Z,68.90
2019-04-07T08:02:40.234Z,67.20
2019-04-07T08:05:09.247Z,66.80
2019-04-07T08:07:37.698Z,66.50
2019-04-07T08:10:07.413Z,66.00
2019-04-07T08:12:35.896Z,65.40
2019-04-07T08:15:06.057Z,64.30
2019-04-07T08:17:34.569Z,64.70
2019-04-07T08:20:03.205Z,64.20
2019-04-07T08:22:39.273Z,63.60
2019-04-07T08:25:02.426Z,64.40
2019-04-07T08:27:32.052Z,64.60
2019-04-07T08:30:01.601Z,65.40
2019-04-07T08:32:32.288Z,64.80
2019-04-07T08:35:03.901Z,66.00
2019-04-07T08:37:30.785Z,65.10
2019-04-07T08:39:59.444Z,64.40
2019-04-07T08:42:27.942Z,64.00
2019-04-07T08:44:58.703Z,64.90
2019-04-07T08:47:26.422Z,64.80
2019-04-07T08:49:56.911Z,63.70
2019-04-07T08:52:24.850Z,63.70
2019-04-07T08:54:53.503Z,65.00
2019-04-07T08:57:22.579Z,62.90
2019-04-07T08:59:51.438Z,61.80
2019-04-07T09:02:20.054Z,59.50
2019-04-07T09:07:22.487Z,59.40
2019-04-07T09:09:50.018Z,60.80
2019-04-07T09:12:18.403Z,60.00
2019-04-07T09:14:46.878Z,60.40
2019-04-07T09:17:33.235Z,60.50
2019-04-07T09:20:00.844Z,60.20
2019-04-07T09:22:31.869Z,60.40
2019-04-07T09:25:08.468Z,59.30
2019-04-07T09:27:55.039Z,58.50
2019-04-07T09:30:26.203Z,57.60
2019-04-07T09:33:06.023Z,56.90
2019-04-07T09:35:52.605Z,57.80
2019-04-07T09:38:25.012Z,57.60
2019-04-07T09:41:10.370Z,56.20
2019-04-07T09:43:57.089Z,55.30
2019-04-07T09:46:27.613Z,55.00
2019-04-07T09:49:01.863Z,54.90
2019-04-07T09:51:41.506Z,53.90
2019-04-07T09:54:12.252Z,53.50
2019-04-07T09:56:58.800Z,52.40
2019-04-07T09:59:35.024Z,53.40
2019-04-07T10:02:16.907Z,53.00
2019-04-07T10:04:46.939Z,50.90
2019-04-07T10:07:25.769Z,50.40
2019-04-07T10:10:10.270Z,49.40
2019-04-07T10:12:51.246Z,49.20
2019-04-07T10:15:24.548Z,47.60
2019-04-07T10:17:55.409Z,47.30
2019-04-07T10:20:31.482Z,48.30
2019-04-07T10:23:14.127Z,49.40
2019-04-07T10:25:44.559Z,48.20
2019-04-07T10:28:14.668Z,48.20
2019-04-07T10:30:54.091Z,47.50
2019-04-07T10:33:30.456Z,48.90
2019-04-07T10:36:00.521Z,49.10
2019-04-07T10:38:32.978Z,45.90
2019-04-07T10:41:15.139Z,47.20
2019-04-07T10:43:51.466Z,45.10
2019-04-07T10:46:36.452Z,45.00
2019-04-07T10:49:22.718Z,44.40
2019-04-07T10:51:55.810Z,41.80
2019-04-07T10:54:29.322Z,39.40
2019-04-07T10:57:02.322Z,38.20
2019-04-07T10:59:32.679Z,36.90
2019-04-07T11:02:19.216Z,35.90
2019-04-07T11:04:52.653Z,36.20
2019-04-07T11:07:22.835Z,33.20
2019-04-07T11:09:55.541Z,34.70
2019-04-07T11:12:42.382Z,35.10
2019-04-07T11:15:12.504Z,34.40
2019-04-07T11:17:45.616Z,33.70
2019-04-07T11:20:15.645Z,31.90
2019-04-07T11:22:57.713Z,31.40
2019-04-07T11:25:30.300Z,30.60
2019-04-07T11:28:19.536Z,31.10
2019-04-07T11:30:49.701Z,31.60
2019-04-07T11:33:25.818Z,31.10
2019-04-07T11:35:55.830Z,30.10
2019-04-07T11:38:35.334Z,30.10
2019-04-07T11:41:05.844Z,29.80
2019-04-07T11:43:54.478Z,29.10
2019-04-07T11:46:34.039Z,28.90
2019-04-07T11:49:04.294Z,29.60
2019-04-07T11:51:34.356Z,30.30
2019-04-07T11:54:19.776Z,28.90
2019-04-07T11:56:49.851Z,29.60
2019-04-07T11:59:22.769Z,29.30
2019-04-07T12:02:09.021Z,29.80
2019-04-07T12:04:45.045Z,29.00
2019-04-07T12:07:22.014Z,27.40
2019-04-07T12:09:58.459Z,28.20
2019-04-07T12:12:28.876Z,28.10
2019-04-07T12:15:05.247Z,27.20
2019-04-07T12:17:52.416Z,26.60
2019-04-07T12:20:22.718Z,26.40
2019-04-07T12:22:55.414Z,25.60
2019-04-07T12:25:33.465Z,25.20
2019-04-07T12:28:03.462Z,24.40
2019-04-07T12:30:50.235Z,25.20
2019-04-07T12:33:22.909Z,25.70
2019-04-07T12:35:55.118Z,26.30
2019-04-07T12:38:23.580Z,25.60
2019-04-07T12:41:15.826Z,25.40
2019-04-07T12:43:47.433Z,26.20
2019-04-07T12:46:19.409Z,25.50
2019-04-07T12:48:56.449Z,26.70
2019-04-07T12:51:26.517Z,26.50
2019-04-07T12:54:00.190Z,26.00
2019-04-07T12:56:46.754Z,25.80
2019-04-07T12:59:17.926Z,28.00
2019-04-07T13:01:51.043Z,27.50
2019-04-07T13:04:24.343Z,26.70
2019-04-07T13:06:57.775Z,28.30
2019-04-07T13:09:32.368Z,27.90
2019-04-07T13:12:22.929Z,26.70
2019-04-07T13:14:53.604Z,26.00
2019-04-07T13:17:33.509Z,26.80
2019-04-07T13:20:18.998Z,27.20
2019-04-07T13:22:58.773Z,26.90
2019-04-07T13:25:38.584Z,26.90
2019-04-07T13:28:24.507Z,27.20
2019-04-07T13:31:11.295Z,26.20
2019-04-07T13:33:51.201Z,26.90
2019-04-07T13:36:36.598Z,26.50
2019-04-07T13:39:12.095Z,26.60
2019-04-07T13:41:45.863Z,26.60
2019-04-07T13:44:29.626Z,27.40
2019-04-07T13:47:09.425Z,28.60
2019-04-07T13:49:39.896Z,27.20
2019-04-07T13:52:17.538Z,26.40
2019-04-07T13:54:50.751Z,27.00
2019-04-07T13:57:34.018Z,26.80
2019-04-07T14:00:22.792Z,26.80
2019-04-07T14:02:55.996Z,26.90
2019-04-07T14:05:39.350Z,26.50
2019-04-07T14:08:30.720Z,26.70
2019-04-07T14:11:08.452Z,27.00
2019-04-07T14:13:40.455Z,27.50
2019-04-07T14:16:09.519Z,28.40
2019-04-07T14:18:48.890Z,28.90
2019-04-07T14:21:23.321Z,29.00
2019-04-07T14:24:02.510Z,29.70
2019-04-07T14:26:33.446Z,29.30
2019-04-07T14:29:19.541Z,29.80
2019-04-07T14:31:50.173Z,30.00
2019-04-07T14:34:20.694Z,30.40
2019-04-07T14:37:05.941Z,31.60
2019-04-07T14:39:44.492Z,31.30
2019-04-07T14:42:29.469Z,30.00
2019-04-07T14:45:17.482Z,29.90
2019-04-07T14:48:04.171Z,28.80
2019-04-07T14:50:34.168Z,28.00
2019-04-07T14:53:10.908Z,27.70
2019-04-07T14:55:48.879Z,29.60
2019-04-07T14:58:24.486Z,28.80
2019-04-07T15:01:04.739Z,29.00
2019-04-07T15:03:30.869Z,30.30
2019-04-07T15:05:59.572Z,29.30
2019-04-07T15:08:35.641Z,30.20
2019-04-07T15:11:15.257Z,30.50
2019-04-07T15:13:44.636Z,31.80
2019-04-07T15:16:12.155Z,32.20
2019-04-07T15:18:41.118Z,31.90
2019-04-07T15:21:09.918Z,32.10
2019-04-07T15:23:39.992Z,31.60
2019-04-07T15:26:08.945Z,30.50
2019-04-07T15:28:37.336Z,31.30
2019-04-07T15:31:06.165Z,32.30
2019-04-07T15:33:35.177Z,33.60
2019-04-07T15:36:04.349Z,31.90
2019-04-07T15:38:34.346Z,31.80
2019-04-07T15:41:07.759Z,32.40
2019-04-07T15:43:34.872Z,32.40
2019-04-07T15:46:03.387Z,32.90
2019-04-07T15:48:31.850Z,32.10
2019-04-07T15:51:02.490Z,33.10
2019-04-07T15:53:30.906Z,35.40
2019-04-07T15:56:04.796Z,34.10
2019-04-07T15:58:29.732Z,33.70
2019-04-07T16:00:58.961Z,33.40
2019-04-07T16:03:27.706Z,33.70
2019-04-07T16:05:56.157Z,34.40
2019-04-07T16:08:27.251Z,33.90
2019-04-07T16:10:55.608Z,34.40
2019-04-07T16:13:24.947Z,34.30
2019-04-07T16:15:55.207Z,34.10
2019-04-07T16:18:23.559Z,33.10
2019-04-07T16:20:51.883Z,32.50
2019-04-07T16:23:20.966Z,31.70
2019-04-07T16:25:49.540Z,31.70
2019-04-07T16:28:18.665Z,32.10
2019-04-07T16:30:49.517Z,33.70
2019-04-07T16:33:17.440Z,35.30
2019-04-07T16:35:51.132Z,35.30
2019-04-07T16:38:16.376Z,36.40
2019-04-07T16:40:44.790Z,38.40
2019-04-07T16:43:16.050Z,39.10
2019-04-07T16:45:44.936Z,39.80
2019-04-07T16:48:14.039Z,41.10
2019-04-07T16:50:42.514Z,42.30
2019-04-07T16:53:11.795Z,42.60
2019-04-07T16:55:47.436Z,44.10
2019-04-07T16:58:14.296Z,44.40
2019-04-07T17:00:42.733Z,44.60
2019-04-07T17:03:11.218Z,45.10
2019-04-07T17:05:39.737Z,45.80
2019-04-07T17:08:08.603Z,46.80
2019-04-07T17:10:37.110Z,46.70
2019-04-07T17:13:14.579Z,48.20
2019-04-07T17:15:39.450Z,47.90
2019-04-07T17:18:08.467Z,48.20
2019-04-07T17:20:38.159Z,48.70
2019-04-07T17:23:07.057Z,48.90
2019-04-07T17:25:36.105Z,49.20
2019-04-07T17:28:06.020Z,49.50
2019-04-07T17:30:35.413Z,50.10
2019-04-07T17:33:05.230Z,50.10
2019-04-07T17:35:35.566Z,50.20
2019-04-07T17:38:06.789Z,50.20
2019-04-07T17:40:37.638Z,50.60
2019-04-07T17:43:13.939Z,50.90
2019-04-07T17:45:46.174Z,52.20
2019-04-07T17:48:17.079Z,51.10
2019-04-07T17:50:50.069Z,52.00
2019-04-07T17:53:38.344Z,52.40
2019-04-07T17:56:13.607Z,53.10
2019-04-07T17:58:45.859Z,53.50
2019-04-07T18:01:31.329Z,54.40
2019-04-07T18:04:04.159Z,55.10
2019-04-07T18:06:37.141Z,55.50
2019-04-07T18:09:20.907Z,55.90
2019-04-07T18:11:50.152Z,55.80
2019-04-07T18:14:38.553Z,56.20
2019-04-07T18:17:26.400Z,56.50
2019-04-07T18:19:56.109Z,56.60
2019-04-07T18:22:27.508Z,57.10
2019-04-07T18:25:12.427Z,56.60
2019-04-07T18:27:47.441Z,56.90
2019-04-07T18:30:16.978Z,57.20
2019-04-07T18:32:54.012Z,57.20
2019-04-07T18:35:39.308Z,57.70
2019-04-07T18:38:18.476Z,57.90
2019-04-07T18:41:09.382Z,58.30
2019-04-07T18:43:52.001Z,58.10
2019-04-07T18:46:30.106Z,58.30
2019-04-07T18:49:16.918Z,58.70
2019-04-07T18:51:49.277Z,58.40
2019-04-07T18:54:35.503Z,58.10
2019-04-07T18:57:15.303Z,57.80
2019-04-07T19:00:01.002Z,58.20
2019-04-07T19:02:24.794Z,58.20
2019-04-07T19:04:58.999Z,58.10
2019-04-07T19:07:27.191Z,58.60
2019-04-07T19:10:07.241Z,58.30
2019-04-07T19:12:31.677Z,58.60
2019-04-07T19:15:17.754Z,58.50
2019-04-07T19:17:58.945Z,58.90
2019-04-07T19:20:45.711Z,59.10
2019-04-07T19:23:27.950Z,59.90
2019-04-07T19:26:17.037Z,60.00
2019-04-07T19:28:43.644Z,59.70
2019-04-07T19:31:19.306Z,59.80
2019-04-07T19:33:50.472Z,59.90
2019-04-07T19:36:23.038Z,60.20
2019-04-07T19:39:11.208Z,60.90
2019-04-07T19:42:01.325Z,61.40
2019-04-07T19:44:38.208Z,62.20
2019-04-07T19:47:04.516Z,62.00
2019-04-07T19:49:34.716Z,62.10
2019-04-07T19:52:09.329Z,61.90
2019-04-07T19:54:46.767Z,62.90
2019-04-07T19:57:25.908Z,64.20
2019-04-07T20:00:02.948Z,63.30
2019-04-07T20:02:36.399Z,63.60
2019-04-07T20:05:21.140Z,64.80
2019-04-07T20:07:51.201Z,64.40
2019-04-07T20:10:23.777Z,64.70
2019-04-07T20:13:09.107Z,65.60
2019-04-07T20:15:41.575Z,65.60
2019-04-07T20:18:14.607Z,66.40
2019-04-07T20:20:44.979Z,67.20
2019-04-07T20:23:17.384Z,68.00
2019-04-07T20:26:01.761Z,69.10
2019-04-07T20:28:49.892Z,69.80
2019-04-07T20:31:35.171Z,69.30
2019-04-07T20:34:06.060Z,69.60
2019-04-07T20:36:54.880Z,69.90
2019-04-07T20:39:34.106Z,69.90
2019-04-07T20:42:03.141Z,72.40
2019-04-07T20:44:35.227Z,72.00
2019-04-07T20:47:20.881Z,72.40
2019-04-07T20:50:03.161Z,72.70
2019-04-07T20:52:41.085Z,73.60
2019-04-07T20:55:25.889Z,74.40
2019-04-07T20:58:13.149Z,74.80
2019-04-07T21:00:38.221Z,75.70
2019-04-07T21:03:25.125Z,75.40
2019-04-07T21:06:05.025Z,75.60
2019-04-07T21:08:35.660Z,76.00
2019-04-07T21:11:08.997Z,75.90
2019-04-07T21:13:48.271Z,76.10
2019-04-07T21:16:32.930Z,75.80
2019-04-07T21:19:07.800Z,76.80
2019-04-07T21:21:47.771Z,76.50
2019-04-07T21:24:21.836Z,76.00
2019-04-07T21:27:10.378Z,77.30
2019-04-07T21:29:43.421Z,76.60
2019-04-07T21:32:16.846Z,76.80
2019-04-07T21:35:03.226Z,78.20
2019-04-07T21:37:50.148Z,77.80
2019-04-07T21:40:20.973Z,78.40
2019-04-07T21:42:54.511Z,79.20
2019-04-07T21:45:41.085Z,78.80
2019-04-07T21:48:25.570Z,79.60
2019-04-07T21:51:15.401Z,79.20
2019-04-07T21:54:02.211Z,79.60
2019-04-07T21:56:33.169Z,78.60
2019-04-07T21:59:20.061Z,79.10
2019-04-07T22:02:02.786Z,79.40
2019-04-07T22:04:36.277Z,79.90
2019-04-07T22:07:11.828Z,79.30
2019-04-07T22:09:42.773Z,79.90
2019-04-07T22:12:12.592Z,80.00
2019-04-07T22:14:43.054Z,79.50
2019-04-07T22:17:11.574Z,80.00
2019-04-07T22:19:44.112Z,79.20
2019-04-07T22:22:10.919Z,79.70
2019-04-07T22:24:39.530Z,80.20
2019-04-07T22:27:08.019Z,80.10
2019-04-07T22:29:37.400Z,80.50
2019-04-07T22:32:06.003Z,81.60
2019-04-07T22:34:34.365Z,80.20
2019-04-07T22:37:02.818Z,80.80
2019-04-07T22:39:32.013Z,80.60
2019-04-07T22:42:00.432Z,81.00
2019-04-07T22:44:29.343Z,81.30
2019-04-07T22:46:58.568Z,80.60
2019-04-07T22:49:31.486Z,79.70
2019-04-07T22:51:57.700Z,79.80
2019-04-07T22:54:30.170Z,80.20
2019-04-07T22:56:56.464Z,79.90
2019-04-07T22:59:25.935Z,78.80
2019-04-07T23:01:54.267Z,78.40
2019-04-07T23:04:22.685Z,78.50
2019-04-07T23:06:51.135Z,77.70
2019-04-07T23:09:19.491Z,78.20
2019-04-07T23:11:48.261Z,78.40
2019-04-07T23:14:16.631Z,77.50
2019-04-07T23:16:45.118Z,78.20
2019-04-07T23:19:14.316Z,79.30
2019-04-07T23:21:42.720Z,78.90
2019-04-07T23:24:12.860Z,79.60
2019-04-07T23:26:41.305Z,79.40
2019-04-07T23:29:10.025Z,79.30
2019-04-07T23:31:38.570Z,79.70
2019-04-07T23:34:06.960Z,79.50
2019-04-07T23:36:36.117Z,79.50
2019-04-07T23:39:06.435Z,79.00
2019-04-07T23:41:35.177Z,79.50
2019-04-07T23:44:03.557Z,80.10
2019-04-07T23:46:32.027Z,80.30
2019-04-07T23:49:00.413Z,80.40
2019-04-07T23:51:28.842Z,80.40
2019-04-07T23:54:07.928Z,80.80
2019-04-07T23:56:37.549Z,80.80
2019-04-07T23:59:06.291Z,81.00
